Terminal Aerodrome Forecast
Issued by NWS

Current Version | Previous Version | Text Only | Print | Product List | Glossary Off
Versions: 1 2 3 4 5 6 7 8 9 10 11 12

251
FTUS44 KSJT 281126
TAFBBD
TAF
KBBD 281126Z 2812/2912 VRB04KT P6SM FEW018 SCT150
     FM281500 18005KT P6SM SCT040
     FM281700 15009KT P6SM SCT070
      AMD NOT SKED=

USA.gov is the U.S. government's official web portal to all federal, state and local government web resources and services.